Time;durP1;ratioP1;P1;durP2;ratioP2;P2;SDS_P1;SDS_P2;PMS_P1;PMS_P2;Temp;Humidity;BMP_temperature;BMP_pressure;BME280_temperature;BME280_humidity;BME280_pressure;Samples;Min_cycle;Max_cycle;Signal;HPM_P1;HPM_P2
2021/03/25 00:01:57;;;;;;;;;;;;;;;5.83;100.00;99045.47;5102202;27;19924;-80
2021/03/25 00:04:24;;;;;;;;;;;;;;;5.87;100.00;99047.06;5125575;27;19923;-81
2021/03/25 00:06:53;;;;;;;;;;;;;;;5.86;100.00;99044.69;5113077;28;20401;-80
2021/03/25 00:09:19;;;;;;;;;;;;;;;5.89;100.00;99046.66;5127179;27;20285;-80
2021/03/25 00:11:46;;;;;;;;;;;;;;;5.88;100.00;99043.09;5134601;27;20002;-80
2021/03/25 00:14:13;;;;;;;;;;;;;;;5.89;100.00;99041.94;5125209;27;19924;-80
2021/03/25 00:16:40;;;;;;;;;;;;;;;5.89;100.00;99033.63;5136845;27;19950;-80
2021/03/25 00:19:07;;;;;;;;;;;;;;;5.87;100.00;99035.16;5137167;27;19934;-80
2021/03/25 00:21:35;;;;;;;;;;;;;;;5.86;100.00;99030.81;5118349;27;19924;-80
2021/03/25 00:24:04;;;;;;;;;;;;;;;5.83;100.00;99039.94;5137036;27;19923;-80
2021/03/25 00:26:31;;;;;;;;;;;;;;;5.85;100.00;99034.75;5137075;27;19923;-81
2021/03/25 00:28:58;;;;;;;;;;;;;;;5.86;100.00;99037.13;5136891;27;20370;-80
2021/03/25 00:31:24;;;;;;;;;;;;;;;5.86;100.00;99041.91;5136375;27;19930;-80
2021/03/25 00:33:53;;;;;;;;;;;;;;;5.85;100.00;99032.00;5136887;27;19923;-80
2021/03/25 00:36:21;;;;;;;;;;;;;;;5.89;100.00;99027.25;5136667;27;19923;-80
2021/03/25 00:38:48;;;;;;;;;;;;;;;5.88;100.00;99028.47;5118113;27;19965;-80
2021/03/25 00:41:15;;;;;;;;;;;;;;;5.91;100.00;99022.13;5136598;27;19924;-80
2021/03/25 00:43:41;;;;;;;;;;;;;;;5.91;100.00;99022.13;5118043;27;19930;-80
2021/03/25 00:46:08;;;;;;;;;;;;;;;5.89;100.00;99016.16;5136692;27;20077;-80
2021/03/25 00:48:35;;;;;;;;;;;;;;;5.89;100.00;99016.16;5136762;27;19924;-80
2021/03/25 00:51:02;;;;;;;;;;;;;;;5.88;100.00;99017.38;5121646;27;19924;-80
2021/03/25 00:53:32;;;;;;;;;;;;;;;5.88;100.00;99012.59;5118213;27;19923;-80
2021/03/25 00:55:59;;;;;;;;;;;;;;;5.83;100.00;99026.06;5103641;27;19924;-80
2021/03/25 00:58:26;;;;;;;;;;;;;;;5.81;100.00;99014.53;5118258;27;19931;-80
2021/03/25 01:00:54;;;;;;;;;;;;;;;5.83;100.00;99014.97;5136377;27;19929;-80
2021/03/25 01:03:22;;;;;;;;;;;;;;;5.83;100.00;99017.75;5136235;27;19931;-80
2021/03/25 01:05:49;;;;;;;;;;;;;;;5.85;100.00;99009.81;5136098;27;20018;-80
2021/03/25 01:08:16;;;;;;;;;;;;;;;5.89;100.00;99013.41;5117901;27;19930;-80
2021/03/25 01:10:49;;;;;;;;;;;;;;;5.89;100.00;99008.66;5094192;28;20030;-80
2021/03/25 01:13:29;;;;;;;;;;;;;;;5.93;100.00;99012.22;5099124;28;19927;-80
2021/03/25 01:15:57;;;;;;;;;;;;;;;5.99;100.00;98999.53;5117280;27;20410;-81
2021/03/25 01:18:24;;;;;;;;;;;;;;;5.94;100.00;99001.94;5135972;27;19930;-80
2021/03/25 01:20:51;;;;;;;;;;;;;;;5.99;100.00;98998.75;5117546;27;19923;-81
2021/03/25 01:23:18;;;;;;;;;;;;;;;6.02;100.00;99003.50;5117441;27;20006;-79
2021/03/25 01:25:45;;;;;;;;;;;;;;;6.05;100.00;98997.97;5117454;27;19923;-81
2021/03/25 01:28:13;;;;;;;;;;;;;;;6.03;100.00;98997.56;5135931;27;19931;-81
2021/03/25 01:30:43;;;;;;;;;;;;;;;6.10;100.00;98994.81;5135681;27;20034;-82
2021/03/25 01:33:12;;;;;;;;;;;;;;;6.10;100.00;99002.31;5117552;27;20007;-81
2021/03/25 01:35:40;;;;;;;;;;;;;;;6.17;100.00;98994.78;5118216;27;20027;-81
2021/03/25 01:38:08;;;;;;;;;;;;;;;6.12;100.00;98997.97;5085887;28;20290;-81
2021/03/25 01:40:40;;;;;;;;;;;;;;;6.16;100.00;98997.97;5077533;27;20282;-81
2021/03/25 01:43:16;;;;;;;;;;;;;;;6.17;100.00;98989.25;5096620;28;19935;-81
2021/03/25 01:45:43;;;;;;;;;;;;;;;6.17;100.00;98983.69;5111366;27;20075;-81
2021/03/25 01:48:14;;;;;;;;;;;;;;;6.14;100.00;98983.69;5079775;28;20050;-81
2021/03/25 01:50:41;;;;;;;;;;;;;;;6.24;100.00;98982.91;5084432;28;20023;-80
2021/03/25 01:53:12;;;;;;;;;;;;;;;6.20;100.00;98982.09;5100815;28;19930;-80
2021/03/25 01:56:08;;;;;;;;;;;;;;;6.21;100.00;98983.72;5114897;28;19994;-80
2021/03/25 01:58:44;;;;;;;;;;;;;;;6.21;100.00;98975.38;5101279;27;19923;-80
2021/03/25 02:01:21;;;;;;;;;;;;;;;6.14;100.00;98980.91;5120761;27;19930;-81
2021/03/25 02:04:06;;;;;;;;;;;;;;;6.09;100.00;98981.34;5092978;28;19971;-81
2021/03/25 02:06:37;;;;;;;;;;;;;;;6.08;100.00;98988.06;5096228;27;19924;-81
2021/03/25 02:09:05;;;;;;;;;;;;;;;6.17;100.00;98986.47;5135242;27;19950;-81
2021/03/25 02:11:58;;;;;;;;;;;;;;;6.23;100.00;98992.41;5116469;27;19924;-81
2021/03/25 02:14:44;;;;;;;;;;;;;;;6.27;100.00;98990.44;5103796;28;19963;-81
2021/03/25 02:17:14;;;;;;;;;;;;;;;6.32;100.00;98985.28;5096003;28;19931;-81
2021/03/25 02:20:03;;;;;;;;;;;;;;;6.26;100.00;98980.53;5089305;28;20423;-80
2021/03/25 02:22:54;;;;;;;;;;;;;;;6.27;100.00;98982.91;5096274;28;19945;-81
2021/03/25 02:25:43;;;;;;;;;;;;;;;6.18;100.00;98984.50;5111392;27;20419;-80
2021/03/25 02:28:36;;;;;;;;;;;;;;;6.19;100.00;98974.97;5092959;28;19924;-80
2021/03/25 02:31:32;;;;;;;;;;;;;;;6.16;100.00;98986.88;5092809;28;19924;-80
2021/03/25 02:34:03;;;;;;;;;;;;;;;6.14;100.00;98989.25;5087379;28;20294;-81
2021/03/25 02:36:54;;;;;;;;;;;;;;;6.17;100.00;98988.44;5114017;27;19946;-80
2021/03/25 02:39:26;;;;;;;;;;;;;;;6.19;100.00;98986.09;5096764;28;20004;-81
2021/03/25 02:42:10;;;;;;;;;;;;;;;6.17;100.00;98985.69;5116353;28;20277;-80
2021/03/25 02:44:43;;;;;;;;;;;;;;;6.19;100.00;98980.53;5127804;28;19934;-81
2021/03/25 02:47:10;;;;;;;;;;;;;;;6.19;100.00;98991.63;5095853;28;19924;-80
2021/03/25 02:49:50;;;;;;;;;;;;;;;6.18;100.00;98990.06;5096069;28;19923;-80
2021/03/25 02:52:22;;;;;;;;;;;;;;;6.19;100.00;98997.97;5095929;28;19928;-80
2021/03/25 02:55:00;;;;;;;;;;;;;;;6.27;100.00;98990.44;5096981;28;19927;-81
2021/03/25 02:57:30;;;;;;;;;;;;;;;6.26;100.00;98983.28;5097907;28;19943;-81
2021/03/25 03:00:00;;;;;;;;;;;;;;;6.25;100.00;98984.50;5137697;27;19934;-80
2021/03/25 03:02:36;;;;;;;;;;;;;;;6.24;100.00;98985.69;5138264;27;19923;-80
2021/03/25 03:05:16;;;;;;;;;;;;;;;6.19;100.00;98980.53;5120525;27;19924;-80
2021/03/25 03:07:46;;;;;;;;;;;;;;;6.25;100.00;98976.16;5138854;27;19984;-81
2021/03/25 03:10:21;;;;;;;;;;;;;;;6.24;100.00;98977.38;5120549;27;19946;-81
2021/03/25 03:12:50;;;;;;;;;;;;;;;6.27;100.00;98976.56;5138602;27;19923;-81
2021/03/25 03:15:26;;;;;;;;;;;;;;;6.24;100.00;98980.16;5119910;27;19973;-81
2021/03/25 03:18:03;;;;;;;;;;;;;;;6.26;100.00;98981.31;5103250;27;19924;-81
2021/03/25 03:20:53;;;;;;;;;;;;;;;6.20;100.00;98980.13;5099862;28;19924;-80
2021/03/25 03:23:39;;;;;;;;;;;;;;;6.18;100.00;98978.97;5114612;27;19947;-81
2021/03/25 03:26:09;;;;;;;;;;;;;;;6.17;100.00;98978.16;5120272;27;19924;-81
2021/03/25 03:28:41;;;;;;;;;;;;;;;6.16;100.00;98978.56;5120020;27;19923;-81
2021/03/25 03:31:43;;;;;;;;;;;;;;;6.18;100.00;98978.97;5125851;27;19924;-81
2021/03/25 03:34:18;;;;;;;;;;;;;;;6.13;100.00;98982.13;5095792;28;19924;-81
2021/03/25 03:36:47;;;;;;;;;;;;;;;6.11;100.00;98990.03;5098605;28;19928;-81
2021/03/25 03:39:18;;;;;;;;;;;;;;;6.11;100.00;98984.47;5096822;28;19924;-81
2021/03/25 03:41:51;;;;;;;;;;;;;;;6.10;100.00;98983.72;5107795;28;20297;-81
2021/03/25 03:44:22;;;;;;;;;;;;;;;6.16;100.00;98979.34;5098949;28;19930;-81
2021/03/25 03:46:51;;;;;;;;;;;;;;;6.20;100.00;98987.66;5115521;28;19924;-81
2021/03/25 03:49:24;;;;;;;;;;;;;;;6.20;100.00;98982.09;5119147;27;19927;-81
2021/03/25 03:52:02;;;;;;;;;;;;;;;6.23;100.00;98975.75;5137856;27;19930;-80
2021/03/25 03:54:31;;;;;;;;;;;;;;;6.25;100.00;98973.41;5119153;27;19924;-81
2021/03/25 03:56:58;;;;;;;;;;;;;;;6.29;100.00;98985.28;5119310;27;19923;-81
2021/03/25 03:59:30;;;;;;;;;;;;;;;6.30;100.00;98978.56;5118989;27;19923;-81
2021/03/25 04:02:02;;;;;;;;;;;;;;;6.32;100.00;98976.16;5137364;27;19930;-81
2021/03/25 04:04:31;;;;;;;;;;;;;;;6.37;100.00;98976.56;5096326;28;19931;-81
2021/03/25 04:07:15;;;;;;;;;;;;;;;6.36;100.00;98974.19;5090139;27;19950;-81
2021/03/25 04:10:37;;;;;;;;;;;;;;;6.49;100.00;98978.13;5089266;27;19924;-81
2021/03/25 04:13:19;;;;;;;;;;;;;;;6.48;100.00;98976.56;5136739;27;20438;-81
2021/03/25 04:15:49;;;;;;;;;;;;;;;6.46;100.00;98970.59;5116819;28;20367;-81
2021/03/25 04:18:23;;;;;;;;;;;;;;;6.44;100.00;98965.44;5130579;27;19923;-81
2021/03/25 04:21:25;;;;;;;;;;;;;;;6.45;100.00;98971.81;5077059;28;19932;-81
2021/03/25 04:23:53;;;;;;;;;;;;;;;6.46;100.00;98968.63;5098505;28;20354;-81
2021/03/25 04:26:24;;;;;;;;;;;;;;;6.51;100.00;98975.75;5118308;27;20324;-80
2021/03/25 04:29:05;;;;;;;;;;;;;;;6.51;100.00;98970.22;5136642;27;20387;-81
2021/03/25 04:31:32;;;;;;;;;;;;;;;6.49;100.00;98962.28;5136798;27;20278;-81
2021/03/25 04:34:00;;;;;;;;;;;;;;;6.51;100.00;98959.09;5118585;27;20016;-81
2021/03/25 04:36:29;;;;;;;;;;;;;;;6.45;100.00;98955.91;5135658;27;20084;-81
2021/03/25 04:38:56;;;;;;;;;;;;;;;6.46;100.00;98953.94;5097923;28;19931;-81
2021/03/25 04:41:23;;;;;;;;;;;;;;;6.41;100.00;98952.38;5097970;27;19928;-80
2021/03/25 04:43:56;;;;;;;;;;;;;;;6.40;100.00;98950.78;5136245;27;19924;-81
2021/03/25 04:46:41;;;;;;;;;;;;;;;6.47;100.00;98959.09;5136869;27;20424;-80
2021/03/25 04:49:12;;;;;;;;;;;;;;;6.43;100.00;98951.97;5097872;28;19928;-81
2021/03/25 04:51:38;;;;;;;;;;;;;;;6.50;100.00;98952.75;5131225;27;19923;-81
2021/03/25 04:54:18;;;;;;;;;;;;;;;6.45;100.00;98949.59;5136433;27;19931;-81
2021/03/25 04:56:45;;;;;;;;;;;;;;;6.42;100.00;98950.41;5135497;27;19923;-81
2021/03/25 04:59:12;;;;;;;;;;;;;;;6.55;100.00;98955.13;5124635;27;20371;-80
2021/03/25 05:01:39;;;;;;;;;;;;;;;6.59;100.00;98955.91;5110986;27;19923;-80
2021/03/25 05:04:06;;;;;;;;;;;;;;;6.65;100.00;98947.97;5090774;28;20058;-80
2021/03/25 05:06:50;;;;;;;;;;;;;;;6.62;100.00;98940.44;5095650;28;20383;-80
2021/03/25 05:09:18;;;;;;;;;;;;;;;6.61;100.00;98936.06;5135616;27;20461;-80
2021/03/25 05:11:45;;;;;;;;;;;;;;;6.67;100.00;98937.25;5135798;27;19950;-80
2021/03/25 05:14:18;;;;;;;;;;;;;;;6.72;100.00;98947.97;5121628;27;19946;-80
2021/03/25 05:16:55;;;;;;;;;;;;;;;6.71;100.00;98932.50;5136203;27;19923;-80
2021/03/25 05:19:31;;;;;;;;;;;;;;;6.74;100.00;98937.25;5116681;27;19923;-80
2021/03/25 05:22:17;;;;;;;;;;;;;;;6.72;100.00;98931.28;5117813;27;19950;-80
2021/03/25 05:24:43;;;;;;;;;;;;;;;6.64;100.00;98924.97;5115435;27;19965;-80
2021/03/25 05:27:16;;;;;;;;;;;;;;;6.61;100.00;98925.78;5115001;28;19924;-81
2021/03/25 05:29:44;;;;;;;;;;;;;;;6.66;100.00;98922.59;5135492;27;19923;-80
2021/03/25 05:32:14;;;;;;;;;;;;;;;6.64;100.00;98927.75;5135830;27;19988;-81
2021/03/25 05:34:41;;;;;;;;;;;;;;;6.63;100.00;98928.94;5135438;27;19924;-81
2021/03/25 05:37:08;;;;;;;;;;;;;;;6.66;100.00;98930.13;5117337;27;20302;-80
2021/03/25 05:39:35;;;;;;;;;;;;;;;6.67;100.00;98928.91;5117187;27;20315;-80
2021/03/25 05:42:11;;;;;;;;;;;;;;;6.69;100.00;98929.31;5116680;27;19930;-80
2021/03/25 05:44:41;;;;;;;;;;;;;;;6.70;100.00;98933.66;5135473;27;19927;-80
2021/03/25 05:47:27;;;;;;;;;;;;;;;6.65;100.00;98917.44;5127164;27;19970;-80
2021/03/25 05:50:06;;;;;;;;;;;;;;;6.60;100.00;98924.19;5131624;27;20018;-80
2021/03/25 05:52:32;;;;;;;;;;;;;;;6.62;100.00;98927.34;5135195;27;19923;-81
2021/03/25 05:55:18;;;;;;;;;;;;;;;6.66;100.00;98932.91;5116550;27;20400;-80
2021/03/25 05:58:05;;;;;;;;;;;;;;;6.66;100.00;98936.47;5117514;27;20026;-81
2021/03/25 06:00:44;;;;;;;;;;;;;;;6.72;100.00;98937.66;5094181;28;20428;-80
2021/03/25 06:03:13;;;;;;;;;;;;;;;6.77;100.00;98930.88;5114650;28;19924;-80
2021/03/25 06:05:41;;;;;;;;;;;;;;;6.75;100.00;98936.84;5135164;27;19924;-81
2021/03/25 06:08:08;;;;;;;;;;;;;;;6.76;100.00;98937.63;5121744;27;19927;-80
2021/03/25 06:10:44;;;;;;;;;;;;;;;6.78;100.00;98935.25;5110066;28;19931;-80
2021/03/25 06:13:11;;;;;;;;;;;;;;;6.79;100.00;98934.03;5085310;27;19965;-80
2021/03/25 06:15:38;;;;;;;;;;;;;;;6.82;100.00;98936.81;5122876;27;20068;-79
2021/03/25 06:18:17;;;;;;;;;;;;;;;6.81;100.00;98923.34;5095877;28;19931;-80
2021/03/25 06:20:46;;;;;;;;;;;;;;;6.81;100.00;98928.88;5121434;27;20060;-80
2021/03/25 06:23:24;;;;;;;;;;;;;;;6.82;100.00;98931.25;5114178;28;19966;-80
2021/03/25 06:26:11;;;;;;;;;;;;;;;6.84;100.00;98931.66;5121033;27;19931;-80
2021/03/25 06:28:43;;;;;;;;;;;;;;;6.87;100.00;98935.59;5086779;27;19977;-80
2021/03/25 06:31:26;;;;;;;;;;;;;;;6.88;100.00;98928.84;5125615;27;20372;-80
2021/03/25 06:33:57;;;;;;;;;;;;;;;6.85;100.00;98933.22;5122018;27;19924;-79
2021/03/25 06:36:47;;;;;;;;;;;;;;;6.82;100.00;98930.47;5106962;28;20456;-80
2021/03/25 06:39:18;;;;;;;;;;;;;;;6.88;100.00;98939.97;5102723;28;19957;-80
2021/03/25 06:41:52;;;;;;;;;;;;;;;6.91;100.00;98944.72;5101163;28;20201;-80
2021/03/25 06:44:26;;;;;;;;;;;;;;;6.90;100.00;98945.91;5102885;28;19934;-80
2021/03/25 06:47:00;;;;;;;;;;;;;;;6.90;100.00;98943.13;5116896;28;19924;-79
2021/03/25 06:49:32;;;;;;;;;;;;;;;6.91;100.00;98939.16;5087208;28;20015;-79
2021/03/25 06:52:08;;;;;;;;;;;;;;;6.92;100.00;98943.53;5119294;28;19930;-79
2021/03/25 06:54:34;;;;;;;;;;;;;;;6.94;100.00;98946.69;5097589;28;19923;-80
2021/03/25 06:59:26;;;;;;;;;;;;;;;6.93;100.00;98943.13;5089839;28;19924;-79
2021/03/25 07:01:57;;;;;;;;;;;;;;;6.96;100.00;98953.44;5122284;28;19964;-79
2021/03/25 07:04:26;;;;;;;;;;;;;;;7.06;100.00;98946.25;5122373;28;19947;-80
2021/03/25 07:07:16;;;;;;;;;;;;;;;7.14;100.00;98947.81;5115927;28;19924;-80
2021/03/25 07:09:42;;;;;;;;;;;;;;;7.11;100.00;98940.28;5095077;28;19934;-80
2021/03/25 07:12:23;;;;;;;;;;;;;;;7.20;100.00;98946.19;5126306;28;19924;-80
2021/03/25 07:14:51;;;;;;;;;;;;;;;7.24;100.00;98944.19;5114775;28;19924;-80
2021/03/25 07:17:27;;;;;;;;;;;;;;;7.33;100.00;98953.66;5092015;28;19924;-80
2021/03/25 07:19:56;;;;;;;;;;;;;;;7.41;100.00;98945.31;5112828;28;19923;-80
2021/03/25 07:22:24;;;;;;;;;;;;;;;7.42;100.00;98944.91;5134288;28;19971;-80
2021/03/25 07:24:53;;;;;;;;;;;;;;;7.42;100.00;98947.69;5133799;28;20418;-80
2021/03/25 07:27:24;;;;;;;;;;;;;;;7.47;100.00;98949.25;5133824;28;19950;-80
2021/03/25 07:29:59;;;;;;;;;;;;;;;7.55;100.00;98951.56;5134006;28;20383;-79
2021/03/25 07:32:31;;;;;;;;;;;;;;;7.60;100.00;98955.91;5133896;28;20385;-79
2021/03/25 07:35:10;;;;;;;;;;;;;;;7.56;100.00;98949.59;5112279;28;19923;-79
2021/03/25 07:37:38;;;;;;;;;;;;;;;7.56;100.00;98953.16;5093814;28;19924;-79
2021/03/25 07:40:20;;;;;;;;;;;;;;;7.67;100.00;98953.09;5131078;28;19954;-79
2021/03/25 07:42:46;;;;;;;;;;;;;;;7.68;100.00;98949.88;5136082;27;20389;-79
2021/03/25 07:45:22;;;;;;;;;;;;;;;7.67;100.00;98953.88;5137575;27;19983;-79
2021/03/25 07:47:49;;;;;;;;;;;;;;;7.70;100.00;98953.06;5137745;27;19939;-80
2021/03/25 07:50:30;;;;;;;;;;;;;;;7.79;100.00;98950.63;5137657;27;19923;-79
2021/03/25 07:52:57;;;;;;;;;;;;;;;7.81;100.00;98942.66;5137665;27;19923;-79
2021/03/25 07:55:26;;;;;;;;;;;;;;;7.76;100.00;98939.50;5137382;27;19930;-79
2021/03/25 07:57:54;;;;;;;;;;;;;;;7.82;100.00;98943.44;5137199;27;19924;-79
2021/03/25 08:00:34;;;;;;;;;;;;;;;7.83;100.00;98945.81;5137263;27;19947;-80
2021/03/25 08:03:13;;;;;;;;;;;;;;;7.93;100.00;98944.97;5137624;27;19931;-80
2021/03/25 08:05:40;;;;;;;;;;;;;;;8.02;100.00;98936.94;5137016;27;20373;-79
2021/03/25 08:08:25;;;;;;;;;;;;;;;8.06;100.00;98937.69;5137372;27;19923;-81
2021/03/25 08:11:06;;;;;;;;;;;;;;;8.21;100.00;98939.16;5133447;27;19973;-80
2021/03/25 08:13:36;;;;;;;;;;;;;;;8.36;100.00;98940.66;5107590;28;19931;-80
2021/03/25 08:16:07;;;;;;;;;;;;;;;8.42;100.00;98941.78;5097706;28;19970;-79
2021/03/25 08:18:53;;;;;;;;;;;;;;;8.48;100.00;98953.28;5109270;27;20457;-80
2021/03/25 08:21:28;;;;;;;;;;;;;;;8.53;100.00;98945.28;5117254;27;19924;-82
2021/03/25 08:24:05;;;;;;;;;;;;;;;8.79;100.00;98949.38;5102698;27;20014;-81
2021/03/25 08:26:38;;;;;;;;;;;;;;;9.26;100.00;98940.06;5095817;27;19928;-82
2021/03/25 08:29:11;;;;;;;;;;;;;;;9.90;100.00;98937.16;5102350;28;19931;-86
2021/03/25 08:31:51;;;;;;;;;;;;;;;10.33;100.00;98938.13;5109726;27;19934;-86
2021/03/25 08:34:20;;;;;;;;;;;;;;;10.43;100.00;98917.56;5069774;28;19930;-86
2021/03/25 08:36:53;;;;;;;;;;;;;;;10.13;100.00;98904.50;5095889;28;19924;-82
2021/03/25 08:39:36;;;;;;;;;;;;;;;10.04;100.00;98897.88;5115062;27;19949;-81
2021/03/25 08:42:03;;;;;;;;;;;;;;;10.04;100.00;98889.50;5097621;27;19930;-83
2021/03/25 08:44:41;;;;;;;;;;;;;;;10.08;100.00;98887.47;5101468;28;20370;-83
2021/03/25 08:47:28;;;;;;;;;;;;;;;10.33;100.00;98887.84;5118648;27;19924;-83
2021/03/25 08:50:05;;;;;;;;;;;;;;;10.40;100.00;98876.53;5094865;28;19924;-82
2021/03/25 08:52:35;;;;;;;;;;;;;;;10.34;100.00;98872.66;5066217;28;19931;-83
2021/03/25 08:55:08;;;;;;;;;;;;;;;10.63;100.00;98870.91;5077661;28;19923;-85
2021/03/25 08:57:36;;;;;;;;;;;;;;;10.33;100.00;98866.28;5094824;28;19930;-81
2021/03/25 09:00:03;;;;;;;;;;;;;;;10.05;100.00;98868.75;5126554;27;20668;-84
2021/03/25 09:02:40;;;;;;;;;;;;;;;9.93;100.00;98863.75;5101236;28;19934;-83
2021/03/25 09:05:06;;;;;;;;;;;;;;;9.91;100.00;98866.19;5100037;27;20075;-83
2021/03/25 09:07:36;;;;;;;;;;;;;;;10.04;100.00;98881.13;5095118;28;19976;-82
2021/03/25 09:10:09;;;;;;;;;;;;;;;10.34;100.00;98869.88;5060383;28;19924;-83
2021/03/25 09:12:35;;;;;;;;;;;;;;;10.58;100.00;98877.00;5111651;28;19931;-81
2021/03/25 09:15:06;;;;;;;;;;;;;;;10.93;100.00;98870.72;5124196;27;19930;-80
2021/03/25 09:17:52;;;;;;;;;;;;;;;11.08;100.00;98862.81;5116082;27;19951;-80
2021/03/25 09:20:26;;;;;;;;;;;;;;;11.24;100.00;98855.25;5100139;27;20378;-80
2021/03/25 09:22:58;;;;;;;;;;;;;;;11.18;100.00;98856.97;5112165;28;19924;-80
2021/03/25 09:25:24;;;;;;;;;;;;;;;11.10;100.00;98852.78;5126913;27;19927;-86
2021/03/25 09:27:53;;;;;;;;;;;;;;;10.64;100.00;98864.91;5074898;28;20441;-81
2021/03/25 09:30:42;;;;;;;;;;;;;;;10.45;100.00;98859.28;5075361;28;19955;-80
2021/03/25 09:33:27;;;;;;;;;;;;;;;10.23;100.00;98860.88;5092025;28;19924;-80
2021/03/25 09:35:54;;;;;;;;;;;;;;;10.16;100.00;98855.44;5105021;28;19943;-77
2021/03/25 09:38:28;;;;;;;;;;;;;;;10.14;100.00;98858.66;5117765;27;20405;-82
2021/03/25 09:40:55;;;;;;;;;;;;;;;10.31;100.00;98867.91;5100331;28;19931;-86
2021/03/25 09:43:24;;;;;;;;;;;;;;;10.39;100.00;98866.59;5097483;27;20393;-82
2021/03/25 09:45:53;;;;;;;;;;;;;;;10.46;100.00;98869.25;5120095;27;19928;-88
2021/03/25 09:48:29;;;;;;;;;;;;;;;10.34;100.00;98861.47;5065336;28;19924;-83
2021/03/25 09:51:19;;;;;;;;;;;;;;;10.49;100.00;98857.22;5102627;28;20018;-80
2021/03/25 09:54:11;;;;;;;;;;;;;;;10.51;100.00;98861.16;5114492;27;20068;-80
2021/03/25 09:56:37;;;;;;;;;;;;;;;10.72;100.00;98863.53;5114644;27;20088;-80
2021/03/25 09:59:04;;;;;;;;;;;;;;;11.00;100.00;98856.56;5109561;27;19923;-84
2021/03/25 10:01:45;;;;;;;;;;;;;;;11.16;100.00;98851.06;5111303;27;19924;-83
2021/03/25 10:04:26;;;;;;;;;;;;;;;11.21;100.00;98850.53;5112245;27;19967;-86
2021/03/25 10:07:04;;;;;;;;;;;;;;;10.80;100.00;98855.78;5129470;27;19930;-85
2021/03/25 10:09:51;;;;;;;;;;;;;;;10.65;100.00;98854.50;5111624;28;19927;-85
2021/03/25 10:12:36;;;;;;;;;;;;;;;10.71;100.00;98852.78;5108212;27;20006;-85
2021/03/25 10:15:23;;;;;;;;;;;;;;;10.82;100.00;98851.38;5096980;27;19927;-86
2021/03/25 10:17:50;;;;;;;;;;;;;;;10.90;100.00;98852.78;5107988;28;19951;-84
2021/03/25 10:20:35;;;;;;;;;;;;;;;10.98;100.00;98842.22;5102074;28;19924;-91
2021/03/25 10:23:03;;;;;;;;;;;;;;;11.11;100.00;98837.56;5075604;28;19930;-91
2021/03/25 10:25:30;;;;;;;;;;;;;;;11.10;100.00;98833.22;5100569;28;19928;-88
2021/03/25 10:27:58;;;;;;;;;;;;;;;11.10;100.00;98835.22;5096347;28;19973;-84
2021/03/25 10:30:27;;;;;;;;;;;;;;;11.24;100.00;98827.28;5082286;28;20044;-86
2021/03/25 10:32:54;;;;;;;;;;;;;;;11.36;100.00;98832.19;5093501;28;19947;-86
2021/03/25 10:35:29;;;;;;;;;;;;;;;11.26;100.00;98829.66;5076227;28;19966;-85
2021/03/25 10:37:58;;;;;;;;;;;;;;;11.12;100.00;98833.53;5107301;27;20010;-86
2021/03/25 10:40:33;;;;;;;;;;;;;;;11.19;100.00;98829.81;5085184;28;20294;-87
2021/03/25 10:43:01;;;;;;;;;;;;;;;11.35;100.00;98827.84;5076336;28;19928;-87
2021/03/25 10:45:31;;;;;;;;;;;;;;;11.33;100.00;98815.53;5085433;28;19923;-87
2021/03/25 10:48:14;;;;;;;;;;;;;;;11.28;100.00;98825.22;5060443;28;19950;-87
2021/03/25 10:50:48;;;;;;;;;;;;;;;11.30;100.00;98827.59;5093658;28;19924;-85
2021/03/25 10:53:17;;;;;;;;;;;;;;;11.57;100.00;98828.16;5074621;28;19932;-80
2021/03/25 10:55:45;;;;;;;;;;;;;;;11.51;100.00;98827.09;5091409;28;19924;-79
2021/03/25 10:58:32;;;;;;;;;;;;;;;11.76;100.00;98822.50;5091927;28;19972;-80
2021/03/25 11:01:03;;;;;;;;;;;;;;;11.99;100.00;98813.13;5117339;28;19923;-84
2021/03/25 11:03:32;;;;;;;;;;;;;;;11.93;100.00;98803.69;5112778;28;19945;-86
2021/03/25 11:05:59;;;;;;;;;;;;;;;11.81;100.00;98799.59;5126979;28;19923;-84
2021/03/25 11:08:30;;;;;;;;;;;;;;;12.10;100.00;98802.44;5131182;27;19931;-84
2021/03/25 11:11:00;;;;;;;;;;;;;;;12.36;100.00;98793.72;5113399;27;19924;-84
2021/03/25 11:13:28;;;;;;;;;;;;;;;12.53;100.00;98791.66;5076295;28;19924;-85
2021/03/25 11:15:55;;;;;;;;;;;;;;;12.71;100.00;98792.72;5094808;27;20423;-85
2021/03/25 11:18:40;;;;;;;;;;;;;;;12.74;100.00;98789.03;5126869;27;20030;-82
2021/03/25 11:21:08;;;;;;;;;;;;;;;12.91;100.00;98794.56;5080946;27;20378;-81
2021/03/25 11:23:35;;;;;;;;;;;;;;;12.81;100.00;98774.03;5119415;27;20279;-81
2021/03/25 11:26:04;;;;;;;;;;;;;;;12.56;100.00;98785.94;5113641;27;20280;-82
2021/03/25 11:28:33;;;;;;;;;;;;;;;12.05;100.00;98784.16;5107760;27;19924;-82
2021/03/25 11:31:23;;;;;;;;;;;;;;;11.68;100.00;98773.50;5077824;28;20466;-83
2021/03/25 11:33:51;;;;;;;;;;;;;;;11.72;100.00;98782.59;5121826;27;19976;-81
2021/03/25 11:36:37;;;;;;;;;;;;;;;11.48;100.00;98783.97;5116060;27;19951;-82
2021/03/25 11:39:27;;;;;;;;;;;;;;;11.63;100.00;98784.47;5105350;28;19930;-82
2021/03/25 11:41:56;;;;;;;;;;;;;;;11.64;100.00;98770.03;5081865;28;19931;-83
2021/03/25 11:44:35;;;;;;;;;;;;;;;11.97;100.00;98779.16;5086334;28;20398;-82
2021/03/25 11:47:20;;;;;;;;;;;;;;;12.34;100.00;98765.34;5094470;28;19966;-85
2021/03/25 11:49:47;;;;;;;;;;;;;;;12.58;100.00;98763.88;5082481;28;19930;-87
2021/03/25 11:52:14;;;;;;;;;;;;;;;12.67;100.00;98758.41;5095799;28;19946;-85
2021/03/25 11:54:46;;;;;;;;;;;;;;;12.61;100.00;98765.00;5071227;28;20486;-82
2021/03/25 11:57:25;;;;;;;;;;;;;;;12.74;100.00;98769.41;5102875;28;19931;-85
2021/03/25 12:00:10;;;;;;;;;;;;;;;12.55;100.00;98761.16;5081277;28;20061;-79
2021/03/25 12:02:40;;;;;;;;;;;;;;;12.55;100.00;98758.38;5080749;28;20000;-81
2021/03/25 12:05:19;;;;;;;;;;;;;;;12.51;100.00;98755.66;5082111;28;20016;-84
2021/03/25 12:07:46;;;;;;;;;;;;;;;12.35;100.00;98764.13;5082580;28;19928;-86
2021/03/25 12:10:13;;;;;;;;;;;;;;;12.35;100.00;98752.94;5095722;28;20362;-83
2021/03/25 12:12:43;;;;;;;;;;;;;;;11.96;100.00;98758.81;5080297;28;20429;-84
2021/03/25 12:15:21;;;;;;;;;;;;;;;11.69;100.00;98758.28;5064735;28;19928;-85
2021/03/25 12:17:54;;;;;;;;;;;;;;;11.64;100.00;98753.22;5048534;28;19924;-82
2021/03/25 12:20:26;;;;;;;;;;;;;;;11.52;100.00;98762.31;5084168;28;20068;-82
2021/03/25 12:23:13;;;;;;;;;;;;;;;11.52;100.00;98764.31;5095279;28;19963;-87
2021/03/25 12:25:40;;;;;;;;;;;;;;;11.39;100.00;98755.81;5040539;28;20011;-83
2021/03/25 12:28:07;;;;;;;;;;;;;;;11.19;100.00;98752.31;5089308;28;19924;-84
2021/03/25 12:30:33;;;;;;;;;;;;;;;11.21;100.00;98755.44;5065989;28;20299;-84
2021/03/25 12:33:00;;;;;;;;;;;;;;;11.39;100.00;98758.59;5089015;28;19932;-81
2021/03/25 12:35:27;;;;;;;;;;;;;;;11.56;100.00;98756.59;5103703;28;20599;-81
2021/03/25 12:37:53;;;;;;;;;;;;;;;11.87;100.00;98749.44;5112995;28;19924;-82
2021/03/25 12:40:22;;;;;;;;;;;;;;;12.12;100.00;98738.38;5104147;28;19924;-81
2021/03/25 12:42:49;;;;;;;;;;;;;;;12.30;100.00;98739.44;5109319;27;20561;-80
2021/03/25 12:45:28;;;;;;;;;;;;;;;12.31;100.00;98727.00;5120077;27;19927;-80
2021/03/25 12:47:55;;;;;;;;;;;;;;;12.30;100.00;98728.25;5113993;27;19923;-80
2021/03/25 12:50:23;;;;;;;;;;;;;;;12.49;100.00;98732.91;5132991;27;20375;-82
2021/03/25 12:52:49;;;;;;;;;;;;;;;12.43;100.00;98709.44;5125107;27;19984;-81
2021/03/25 12:55:16;;;;;;;;;;;;;;;12.63;100.00;98728.91;5131428;27;19924;-81
2021/03/25 12:57:43;;;;;;;;;;;;;;;12.72;100.00;98721.41;5133439;27;19927;-80
2021/03/25 13:00:15;;;;;;;;;;;;;;;12.55;100.00;98725.53;5132702;27;19931;-81
2021/03/25 13:02:44;;;;;;;;;;;;;;;12.87;100.00;98712.56;5130922;27;20374;-79
2021/03/25 13:05:11;;;;;;;;;;;;;;;13.09;100.00;98710.69;5110792;27;20324;-80
2021/03/25 13:07:38;;;;;;;;;;;;;;;13.16;100.00;98718.91;5114793;27;20538;-81
2021/03/25 13:10:05;;;;;;;;;;;;;;;13.18;100.00;98702.38;5113446;27;20358;-80
2021/03/25 13:12:32;;;;;;;;;;;;;;;13.28;100.00;98710.50;5132263;27;20012;-80
2021/03/25 13:14:58;;;;;;;;;;;;;;;13.34;100.00;98710.69;5132088;27;19935;-80
2021/03/25 13:17:25;;;;;;;;;;;;;;;13.12;100.00;98713.41;5131756;27;19927;-81